sensor_id;sensor_type;location;lat;lon;timestamp;pressure;altitude;pressure_sealevel;temperature;humidity
10366;BME280;5229;41.820;23.490;2023-05-02T00:01:15;90385.31;;;9.78;67.72
10366;BME280;5229;41.820;23.490;2023-05-02T00:03:42;90390.00;;;9.76;67.80
10366;BME280;5229;41.820;23.490;2023-05-02T00:06:09;90385.88;;;9.75;67.89
10366;BME280;5229;41.820;23.490;2023-05-02T00:08:37;90378.38;;;9.74;68.35
10366;BME280;5229;41.820;23.490;2023-05-02T00:11:05;90382.78;;;9.73;68.30
10366;BME280;5229;41.820;23.490;2023-05-02T00:13:32;90384.91;;;9.71;67.88
10366;BME280;5229;41.820;23.490;2023-05-02T00:15:58;90381.84;;;9.69;67.86
10366;BME280;5229;41.820;23.490;2023-05-02T00:18:25;90385.78;;;9.67;67.82
10366;BME280;5229;41.820;23.490;2023-05-02T00:20:54;90390.75;;;9.63;67.94
10366;BME280;5229;41.820;23.490;2023-05-02T00:23:20;90385.56;;;9.63;68.00
10366;BME280;5229;41.820;23.490;2023-05-02T00:25:48;90387.41;;;9.63;67.88
10366;BME280;5229;41.820;23.490;2023-05-02T00:28:16;90389.72;;;9.64;67.96
10366;BME280;5229;41.820;23.490;2023-05-02T00:30:43;90391.25;;;9.65;67.80
10366;BME280;5229;41.820;23.490;2023-05-02T00:33:10;90390.06;;;9.58;67.97
10366;BME280;5229;41.820;23.490;2023-05-02T00:35:39;90395.06;;;9.54;67.93
10366;BME280;5229;41.820;23.490;2023-05-02T00:38:06;90402.91;;;9.49;67.80
10366;BME280;5229;41.820;23.490;2023-05-02T00:40:42;90399.88;;;9.47;67.89
10366;BME280;5229;41.820;23.490;2023-05-02T00:43:09;90397.75;;;9.49;68.00
10366;BME280;5229;41.820;23.490;2023-05-02T00:45:37;90405.22;;;9.51;68.11
10366;BME280;5229;41.820;23.490;2023-05-02T00:48:06;90400.03;;;9.51;67.96
10366;BME280;5229;41.820;23.490;2023-05-02T00:50:34;90407.34;;;9.49;67.96
10366;BME280;5229;41.820;23.490;2023-05-02T00:53:03;90401.00;;;9.41;67.51
10366;BME280;5229;41.820;23.490;2023-05-02T00:55:30;90403.59;;;9.41;67.92
10366;BME280;5229;41.820;23.490;2023-05-02T00:57:58;90401.56;;;9.38;67.68
10366;BME280;5229;41.820;23.490;2023-05-02T01:00:32;90405.78;;;9.34;67.97
10366;BME280;5229;41.820;23.490;2023-05-02T01:03:11;90396.56;;;9.28;67.87
10366;BME280;5229;41.820;23.490;2023-05-02T01:05:47;90400.22;;;9.27;68.07
10366;BME280;5229;41.820;23.490;2023-05-02T01:08:19;90395.13;;;9.22;67.94
10366;BME280;5229;41.820;23.490;2023-05-02T01:10:56;90387.16;;;9.19;68.18
10366;BME280;5229;41.820;23.490;2023-05-02T01:13:30;90398.28;;;9.19;68.05
10366;BME280;5229;41.820;23.490;2023-05-02T01:15:58;90395.22;;;9.17;67.81
10366;BME280;5229;41.820;23.490;2023-05-02T01:18:30;90398.06;;;9.16;68.33
10366;BME280;5229;41.820;23.490;2023-05-02T01:21:00;90394.75;;;9.15;67.96
10366;BME280;5229;41.820;23.490;2023-05-02T01:23:34;90393.19;;;9.14;67.93
10366;BME280;5229;41.820;23.490;2023-05-02T01:26:12;90388.88;;;9.10;67.93
10366;BME280;5229;41.820;23.490;2023-05-02T01:28:52;90395.19;;;9.03;68.36
10366;BME280;5229;41.820;23.490;2023-05-02T01:31:22;90398.34;;;9.00;68.17
10366;BME280;5229;41.820;23.490;2023-05-02T01:33:51;90390.88;;;8.99;68.38
10366;BME280;5229;41.820;23.490;2023-05-02T01:36:19;90386.75;;;8.98;68.15
10366;BME280;5229;41.820;23.490;2023-05-02T01:38:48;90391.41;;;8.96;68.31
10366;BME280;5229;41.820;23.490;2023-05-02T01:41:17;90389.63;;;8.96;68.25
10366;BME280;5229;41.820;23.490;2023-05-02T01:43:46;90397.66;;;8.95;68.51
10366;BME280;5229;41.820;23.490;2023-05-02T01:46:16;90391.53;;;8.91;68.37
10366;BME280;5229;41.820;23.490;2023-05-02T01:48:45;90398.50;;;8.90;67.80
10366;BME280;5229;41.820;23.490;2023-05-02T01:51:17;90396.47;;;8.87;67.98
10366;BME280;5229;41.820;23.490;2023-05-02T01:53:45;90396.28;;;8.84;68.20
10366;BME280;5229;41.820;23.490;2023-05-02T01:56:16;90395.22;;;8.85;68.19
10366;BME280;5229;41.820;23.490;2023-05-02T01:58:45;90402.41;;;8.88;68.28
10366;BME280;5229;41.820;23.490;2023-05-02T02:01:15;90399.28;;;8.91;68.43
10366;BME280;5229;41.820;23.490;2023-05-02T02:03:44;90397.66;;;8.95;68.04
10366;BME280;5229;41.820;23.490;2023-05-02T02:06:12;90388.84;;;8.96;67.87
10366;BME280;5229;41.820;23.490;2023-05-02T02:08:39;90395.56;;;8.97;67.75
10366;BME280;5229;41.820;23.490;2023-05-02T02:11:09;90398.34;;;9.00;68.17
10366;BME280;5229;41.820;23.490;2023-05-02T02:13:42;90398.84;;;9.02;67.89
10366;BME280;5229;41.820;23.490;2023-05-02T02:16:13;90396.53;;;9.01;67.92
10366;BME280;5229;41.820;23.490;2023-05-02T02:18:44;90399.19;;;8.96;67.94
10366;BME280;5229;41.820;23.490;2023-05-02T02:21:16;90394.09;;;8.91;68.48
10366;BME280;5229;41.820;23.490;2023-05-02T02:23:46;90396.75;;;8.86;68.30
10366;BME280;5229;41.820;23.490;2023-05-02T02:26:14;90399.16;;;8.82;68.31
10366;BME280;5229;41.820;23.490;2023-05-02T02:28:42;90393.47;;;8.80;68.29
10366;BME280;5229;41.820;23.490;2023-05-02T02:31:09;90394.75;;;8.83;68.46
10366;BME280;5229;41.820;23.490;2023-05-02T02:33:36;90398.31;;;8.87;67.90
10366;BME280;5229;41.820;23.490;2023-05-02T02:36:07;90396.69;;;8.91;68.23
10366;BME280;5229;41.820;23.490;2023-05-02T02:38:42;90388.94;;;8.91;67.97
10366;BME280;5229;41.820;23.490;2023-05-02T02:41:14;90390.75;;;8.90;67.96
10366;BME280;5229;41.820;23.490;2023-05-02T02:43:48;90384.31;;;8.88;67.68
10366;BME280;5229;41.820;23.490;2023-05-02T02:46:28;90396.28;;;8.84;67.91
10366;BME280;5229;41.820;23.490;2023-05-02T02:49:06;90397.69;;;8.76;68.05
10366;BME280;5229;41.820;23.490;2023-05-02T02:51:43;90392.88;;;8.70;68.54
10366;BME280;5229;41.820;23.490;2023-05-02T02:54:13;90391.63;;;8.67;68.14
10366;BME280;5229;41.820;23.490;2023-05-02T02:56:46;90395.25;;;8.66;68.08
10366;BME280;5229;41.820;23.490;2023-05-02T02:59:19;90389.13;;;8.62;68.42
10366;BME280;5229;41.820;23.490;2023-05-02T03:02:02;90397.75;;;8.58;68.14
10366;BME280;5229;41.820;23.490;2023-05-02T03:04:33;90390.25;;;8.56;67.61
10366;BME280;5229;41.820;23.490;2023-05-02T03:07:02;90395.72;;;8.55;67.94
10366;BME280;5229;41.820;23.490;2023-05-02T03:09:39;90391.88;;;8.52;67.84
10366;BME280;5229;41.820;23.490;2023-05-02T03:12:06;90392.63;;;8.53;68.69
10366;BME280;5229;41.820;23.490;2023-05-02T03:14:33;90396.75;;;8.54;68.52
10366;BME280;5229;41.820;23.490;2023-05-02T03:17:01;90392.16;;;8.51;68.28
10366;BME280;5229;41.820;23.490;2023-05-02T03:19:28;90392.44;;;8.49;68.05
10366;BME280;5229;41.820;23.490;2023-05-02T03:21:55;90398.91;;;8.47;67.77
10366;BME280;5229;41.820;23.490;2023-05-02T03:24:23;90404.16;;;8.42;67.89
10366;BME280;5229;41.820;23.490;2023-05-02T03:26:53;90400.03;;;8.41;68.40
10366;BME280;5229;41.820;23.490;2023-05-02T03:29:20;90403.38;;;8.41;68.53
10366;BME280;5229;41.820;23.490;2023-05-02T03:31:47;90406.25;;;8.40;68.17
10366;BME280;5229;41.820;23.490;2023-05-02T03:34:15;90393.41;;;8.35;68.09
10366;BME280;5229;41.820;23.490;2023-05-02T03:36:41;90398.44;;;8.45;68.28
10366;BME280;5229;41.820;23.490;2023-05-02T03:39:08;90405.34;;;8.49;68.81
10366;BME280;5229;41.820;23.490;2023-05-02T03:41:37;90405.00;;;8.56;68.63
10366;BME280;5229;41.820;23.490;2023-05-02T03:44:04;90408.97;;;8.67;68.55
10366;BME280;5229;41.820;23.490;2023-05-02T03:46:31;90408.25;;;8.80;68.18
10366;BME280;5229;41.820;23.490;2023-05-02T03:48:57;90416.81;;;8.94;68.14
10366;BME280;5229;41.820;23.490;2023-05-02T03:51:24;90414.75;;;9.10;68.16
10366;BME280;5229;41.820;23.490;2023-05-02T03:53:51;90417.25;;;9.28;68.63
10366;BME280;5229;41.820;23.490;2023-05-02T03:56:18;90422.09;;;9.48;68.21
10366;BME280;5229;41.820;23.490;2023-05-02T03:58:47;90422.03;;;9.67;68.03
10366;BME280;5229;41.820;23.490;2023-05-02T04:01:14;90424.03;;;9.83;67.25
10366;BME280;5229;41.820;23.490;2023-05-02T04:03:41;90424.22;;;10.00;67.30
10366;BME280;5229;41.820;23.490;2023-05-02T04:06:07;90421.84;;;10.17;67.29
10366;BME280;5229;41.820;23.490;2023-05-02T04:08:34;90418.34;;;10.35;67.27
10366;BME280;5229;41.820;23.490;2023-05-02T04:11:01;90428.28;;;10.55;67.27
10366;BME280;5229;41.820;23.490;2023-05-02T04:13:28;90424.75;;;10.73;66.82
10366;BME280;5229;41.820;23.490;2023-05-02T04:15:56;90426.63;;;10.95;66.20
10366;BME280;5229;41.820;23.490;2023-05-02T04:18:23;90426.59;;;11.17;66.12
10366;BME280;5229;41.820;23.490;2023-05-02T04:20:50;90428.53;;;11.33;66.73
10366;BME280;5229;41.820;23.490;2023-05-02T04:23:16;90427.59;;;11.51;65.97
10366;BME280;5229;41.820;23.490;2023-05-02T04:25:50;90428.59;;;11.64;65.93
10366;BME280;5229;41.820;23.490;2023-05-02T04:28:17;90428.50;;;11.77;66.17
10366;BME280;5229;41.820;23.490;2023-05-02T04:30:43;90424.56;;;11.88;66.28
10366;BME280;5229;41.820;23.490;2023-05-02T04:33:12;90435.16;;;12.01;65.59
10366;BME280;5229;41.820;23.490;2023-05-02T04:35:38;90435.47;;;12.08;64.67
10366;BME280;5229;41.820;23.490;2023-05-02T04:38:05;90430.28;;;12.08;64.93
10366;BME280;5229;41.820;23.490;2023-05-02T04:40:33;90438.56;;;12.10;64.87
10366;BME280;5229;41.820;23.490;2023-05-02T04:42:59;90436.88;;;12.14;64.71
10366;BME280;5229;41.820;23.490;2023-05-02T04:45:27;90438.00;;;12.21;64.24
10366;BME280;5229;41.820;23.490;2023-05-02T04:47:54;90439.97;;;12.33;64.34
10366;BME280;5229;41.820;23.490;2023-05-02T04:50:22;90446.47;;;12.44;64.62
10366;BME280;5229;41.820;23.490;2023-05-02T04:52:49;90447.41;;;12.56;63.75
10366;BME280;5229;41.820;23.490;2023-05-02T04:55:16;90441.59;;;12.68;63.79
10366;BME280;5229;41.820;23.490;2023-05-02T04:57:42;90445.75;;;12.77;63.41
10366;BME280;5229;41.820;23.490;2023-05-02T05:00:10;90444.19;;;12.85;63.11
10366;BME280;5229;41.820;23.490;2023-05-02T05:02:37;90450.06;;;12.99;62.84
10366;BME280;5229;41.820;23.490;2023-05-02T05:05:04;90447.00;;;13.14;62.83
10366;BME280;5229;41.820;23.490;2023-05-02T05:07:33;90455.56;;;13.31;62.03
10366;BME280;5229;41.820;23.490;2023-05-02T05:10:00;90449.09;;;13.46;62.39
10366;BME280;5229;41.820;23.490;2023-05-02T05:12:28;90448.47;;;13.66;61.60
10366;BME280;5229;41.820;23.490;2023-05-02T05:14:54;90449.63;;;13.85;61.17
10366;BME280;5229;41.820;23.490;2023-05-02T05:17:21;90453.88;;;14.07;61.30
10366;BME280;5229;41.820;23.490;2023-05-02T05:19:48;90457.19;;;14.24;60.77
10366;BME280;5229;41.820;23.490;2023-05-02T05:22:15;90455.13;;;14.38;60.20
10366;BME280;5229;41.820;23.490;2023-05-02T05:24:50;90457.53;;;14.52;59.89
10366;BME280;5229;41.820;23.490;2023-05-02T05:27:16;90448.22;;;14.72;59.14
10366;BME280;5229;41.820;23.490;2023-05-02T05:29:43;90453.75;;;14.91;58.08
10366;BME280;5229;41.820;23.490;2023-05-02T05:32:10;90455.38;;;15.04;57.84
10366;BME280;5229;41.820;23.490;2023-05-02T05:34:37;90464.28;;;15.23;58.24
10366;BME280;5229;41.820;23.490;2023-05-02T05:37:04;90463.22;;;15.45;57.52
10366;BME280;5229;41.820;23.490;2023-05-02T05:39:30;90462.84;;;15.67;57.57
10366;BME280;5229;41.820;23.490;2023-05-02T05:41:58;90468.78;;;15.88;56.88
10366;BME280;5229;41.820;23.490;2023-05-02T05:44:25;90465.13;;;16.01;56.35
10366;BME280;5229;41.820;23.490;2023-05-02T05:46:52;90460.69;;;16.13;55.86
10366;BME280;5229;41.820;23.490;2023-05-02T05:49:19;90475.19;;;16.23;54.87
10366;BME280;5229;41.820;23.490;2023-05-02T05:51:46;90465.28;;;16.28;55.24
10366;BME280;5229;41.820;23.490;2023-05-02T05:54:13;90463.22;;;16.34;54.82
10366;BME280;5229;41.820;23.490;2023-05-02T05:56:40;90468.91;;;16.36;54.36
10366;BME280;5229;41.820;23.490;2023-05-02T05:59:08;90476.22;;;16.42;54.38
10366;BME280;5229;41.820;23.490;2023-05-02T06:01:35;90475.06;;;16.64;53.85
10366;BME280;5229;41.820;23.490;2023-05-02T06:04:02;90476.44;;;16.85;53.51
10366;BME280;5229;41.820;23.490;2023-05-02T06:06:30;90478.22;;;16.93;52.93
10366;BME280;5229;41.820;23.490;2023-05-02T06:08:57;90479.94;;;17.01;52.73
10366;BME280;5229;41.820;23.490;2023-05-02T06:11:24;90468.25;;;17.11;52.46
10366;BME280;5229;41.820;23.490;2023-05-02T06:13:51;90473.03;;;17.21;51.98
10366;BME280;5229;41.820;23.490;2023-05-02T06:16:20;90474.94;;;17.36;51.89
10366;BME280;5229;41.820;23.490;2023-05-02T06:18:49;90479.69;;;17.42;51.14
10366;BME280;5229;41.820;23.490;2023-05-02T06:21:16;90472.88;;;17.41;51.08
10366;BME280;5229;41.820;23.490;2023-05-02T06:23:43;90473.75;;;17.45;51.08
10366;BME280;5229;41.820;23.490;2023-05-02T06:26:10;90466.84;;;17.53;50.82
10366;BME280;5229;41.820;23.490;2023-05-02T06:28:36;90469.59;;;17.57;50.90
10366;BME280;5229;41.820;23.490;2023-05-02T06:31:04;90471.38;;;17.68;51.01
10366;BME280;5229;41.820;23.490;2023-05-02T06:33:33;90468.13;;;17.87;51.17
10366;BME280;5229;41.820;23.490;2023-05-02T06:36:00;90472.31;;;18.03;50.39
10366;BME280;5229;41.820;23.490;2023-05-02T06:38:26;90470.91;;;18.21;50.02
10366;BME280;5229;41.820;23.490;2023-05-02T06:40:53;90470.28;;;18.40;49.61
10366;BME280;5229;41.820;23.490;2023-05-02T06:43:20;90468.84;;;18.58;49.04
10366;BME280;5229;41.820;23.490;2023-05-02T06:45:51;90471.91;;;18.75;48.44
10366;BME280;5229;41.820;23.490;2023-05-02T06:48:18;90470.78;;;18.92;48.10
10366;BME280;5229;41.820;23.490;2023-05-02T06:50:47;90465.16;;;19.09;48.03
10366;BME280;5229;41.820;23.490;2023-05-02T06:53:13;90465.47;;;19.23;47.66
10366;BME280;5229;41.820;23.490;2023-05-02T06:55:40;90467.72;;;19.40;47.01
10366;BME280;5229;41.820;23.490;2023-05-02T06:58:07;90472.09;;;19.51;46.34
10366;BME280;5229;41.820;23.490;2023-05-02T07:00:34;90467.06;;;19.62;46.27
10366;BME280;5229;41.820;23.490;2023-05-02T07:03:01;90465.47;;;19.76;45.88
10366;BME280;5229;41.820;23.490;2023-05-02T07:05:28;90469.97;;;19.95;45.57
10366;BME280;5229;41.820;23.490;2023-05-02T07:07:56;90464.97;;;20.09;45.04
10366;BME280;5229;41.820;23.490;2023-05-02T07:10:24;90463.31;;;20.20;44.40
10366;BME280;5229;41.820;23.490;2023-05-02T07:12:50;90471.03;;;20.32;43.79
10366;BME280;5229;41.820;23.490;2023-05-02T07:15:17;90467.13;;;20.45;43.69
10366;BME280;5229;41.820;23.490;2023-05-02T07:17:44;90467.78;;;20.61;43.68
10366;BME280;5229;41.820;23.490;2023-05-02T07:20:12;90466.94;;;20.80;42.87
10366;BME280;5229;41.820;23.490;2023-05-02T07:22:39;90472.78;;;20.92;42.76
10366;BME280;5229;41.820;23.490;2023-05-02T07:25:08;90474.25;;;21.12;42.21
10366;BME280;5229;41.820;23.490;2023-05-02T07:27:35;90474.81;;;21.25;41.66
10366;BME280;5229;41.820;23.490;2023-05-02T07:30:03;90473.19;;;21.43;41.93
10366;BME280;5229;41.820;23.490;2023-05-02T07:32:30;90478.03;;;21.67;41.42
10366;BME280;5229;41.820;23.490;2023-05-02T07:34:56;90478.31;;;21.84;41.39
10366;BME280;5229;41.820;23.490;2023-05-02T07:37:23;90470.97;;;22.04;40.64
10366;BME280;5229;41.820;23.490;2023-05-02T07:39:50;90466.28;;;22.23;39.78
10366;BME280;5229;41.820;23.490;2023-05-02T07:42:18;90474.72;;;22.36;39.43
10366;BME280;5229;41.820;23.490;2023-05-02T07:44:45;90475.25;;;22.48;39.25
10366;BME280;5229;41.820;23.490;2023-05-02T07:47:12;90484.50;;;22.68;38.98
10366;BME280;5229;41.820;23.490;2023-05-02T07:49:39;90475.59;;;22.83;38.25
10366;BME280;5229;41.820;23.490;2023-05-02T07:52:05;90477.94;;;22.96;38.28
10366;BME280;5229;41.820;23.490;2023-05-02T07:54:32;90477.75;;;23.18;37.53
10366;BME280;5229;41.820;23.490;2023-05-02T07:57:00;90473.06;;;23.52;37.30
10366;BME280;5229;41.820;23.490;2023-05-02T07:59:30;90476.69;;;23.91;37.16
10366;BME280;5229;41.820;23.490;2023-05-02T08:01:56;90481.03;;;24.34;36.10
10366;BME280;5229;41.820;23.490;2023-05-02T08:04:23;90484.13;;;24.53;35.92
10366;BME280;5229;41.820;23.490;2023-05-02T08:06:50;90482.69;;;24.66;35.48
10366;BME280;5229;41.820;23.490;2023-05-02T08:09:17;90475.09;;;24.82;34.94
10366;BME280;5229;41.820;23.490;2023-05-02T08:11:44;90480.06;;;25.05;34.67
10366;BME280;5229;41.820;23.490;2023-05-02T08:14:11;90486.91;;;25.16;34.04
10366;BME280;5229;41.820;23.490;2023-05-02T08:16:39;90475.91;;;25.32;33.99
10366;BME280;5229;41.820;23.490;2023-05-02T08:19:06;90481.22;;;25.39;33.60
10366;BME280;5229;41.820;23.490;2023-05-02T08:21:33;90472.44;;;25.67;33.73
10366;BME280;5229;41.820;23.490;2023-05-02T08:24:00;90478.75;;;26.29;32.76
10366;BME280;5229;41.820;23.490;2023-05-02T08:26:27;90481.31;;;27.22;31.63
10366;BME280;5229;41.820;23.490;2023-05-02T08:28:53;90477.16;;;27.61;30.59
10366;BME280;5229;41.820;23.490;2023-05-02T08:31:20;90472.44;;;28.17;29.86
10366;BME280;5229;41.820;23.490;2023-05-02T08:33:48;90472.03;;;29.35;28.20
10366;BME280;5229;41.820;23.490;2023-05-02T08:36:16;90474.47;;;30.57;25.82
10366;BME280;5229;41.820;23.490;2023-05-02T08:38:44;90468.59;;;31.01;25.58
10366;BME280;5229;41.820;23.490;2023-05-02T08:41:11;90470.41;;;31.72;24.90
10366;BME280;5229;41.820;23.490;2023-05-02T08:43:38;90468.72;;;32.38;23.77
10366;BME280;5229;41.820;23.490;2023-05-02T08:46:06;90468.13;;;32.59;23.59
10366;BME280;5229;41.820;23.490;2023-05-02T08:48:34;90467.16;;;32.41;22.57
10366;BME280;5229;41.820;23.490;2023-05-02T08:51:05;90461.78;;;31.80;22.28
10366;BME280;5229;41.820;23.490;2023-05-02T08:53:34;90459.41;;;31.98;21.64
10366;BME280;5229;41.820;23.490;2023-05-02T08:56:01;90453.69;;;32.12;21.01
10366;BME280;5229;41.820;23.490;2023-05-02T08:58:28;90453.09;;;32.49;20.56
10366;BME280;5229;41.820;23.490;2023-05-02T09:00:58;90455.91;;;33.12;19.89
10366;BME280;5229;41.820;23.490;2023-05-02T09:03:29;90459.97;;;33.67;20.07
10366;BME280;5229;41.820;23.490;2023-05-02T09:06:05;90449.97;;;34.14;18.83
10366;BME280;5229;41.820;23.490;2023-05-02T09:08:32;90452.53;;;34.51;18.14
10366;BME280;5229;41.820;23.490;2023-05-02T09:11:00;90443.84;;;34.69;18.08
10366;BME280;5229;41.820;23.490;2023-05-02T09:13:32;90449.41;;;34.53;17.95
10366;BME280;5229;41.820;23.490;2023-05-02T09:16:00;90446.75;;;33.60;18.24
10366;BME280;5229;41.820;23.490;2023-05-02T09:18:30;90434.91;;;33.07;18.68
10366;BME280;5229;41.820;23.490;2023-05-02T09:20:58;90447.50;;;33.10;18.80
10366;BME280;5229;41.820;23.490;2023-05-02T09:23:37;90456.53;;;32.62;18.99
10366;BME280;5229;41.820;23.490;2023-05-02T09:26:12;90448.09;;;32.35;19.03
10366;BME280;5229;41.820;23.490;2023-05-02T09:28:40;90435.69;;;32.25;19.19
10366;BME280;5229;41.820;23.490;2023-05-02T09:31:09;90432.78;;;32.61;18.72
10366;BME280;5229;41.820;23.490;2023-05-02T09:33:36;90430.28;;;32.95;18.20
10366;BME280;5229;41.820;23.490;2023-05-02T09:36:03;90430.50;;;33.13;17.86
10366;BME280;5229;41.820;23.490;2023-05-02T09:38:32;90425.69;;;33.08;17.96
10366;BME280;5229;41.820;23.490;2023-05-02T09:41:00;90419.75;;;33.00;18.32
10366;BME280;5229;41.820;23.490;2023-05-02T09:43:28;90408.00;;;32.00;19.16
10366;BME280;5229;41.820;23.490;2023-05-02T09:45:56;90404.41;;;31.74;19.14
10366;BME280;5229;41.820;23.490;2023-05-02T09:48:23;90413.81;;;31.66;19.26
10366;BME280;5229;41.820;23.490;2023-05-02T09:50:49;90412.31;;;31.65;19.31
10366;BME280;5229;41.820;23.490;2023-05-02T09:53:16;90414.91;;;31.85;19.37
10366;BME280;5229;41.820;23.490;2023-05-02T09:55:43;90399.31;;;32.08;18.61
10366;BME280;5229;41.820;23.490;2023-05-02T09:58:21;90401.16;;;31.83;18.88
10366;BME280;5229;41.820;23.490;2023-05-02T10:00:49;90401.00;;;31.58;19.05
10366;BME280;5229;41.820;23.490;2023-05-02T10:03:17;90407.88;;;31.91;18.94
10366;BME280;5229;41.820;23.490;2023-05-02T10:05:44;90416.41;;;32.43;18.37
10366;BME280;5229;41.820;23.490;2023-05-02T10:08:12;90402.06;;;32.62;18.19
10366;BME280;5229;41.820;23.490;2023-05-02T10:10:41;90399.91;;;32.69;18.36
10366;BME280;5229;41.820;23.490;2023-05-02T10:13:12;90397.06;;;32.35;18.73
10366;BME280;5229;41.820;23.490;2023-05-02T10:15:42;90401.47;;;31.40;19.63
10366;BME280;5229;41.820;23.490;2023-05-02T10:18:12;90400.59;;;30.95;20.03
10366;BME280;5229;41.820;23.490;2023-05-02T10:20:43;90421.81;;;30.50;20.55
10366;BME280;5229;41.820;23.490;2023-05-02T10:23:14;90396.25;;;29.45;20.88
10366;BME280;5229;41.820;23.490;2023-05-02T10:25:42;90402.69;;;28.75;21.93
10366;BME280;5229;41.820;23.490;2023-05-02T10:28:09;90389.94;;;28.59;21.96
10366;BME280;5229;41.820;23.490;2023-05-02T10:30:36;90401.28;;;28.06;22.09
10366;BME280;5229;41.820;23.490;2023-05-02T10:33:05;90381.06;;;27.38;22.72
10366;BME280;5229;41.820;23.490;2023-05-02T10:35:32;90390.38;;;26.69;23.96
10366;BME280;5229;41.820;23.490;2023-05-02T10:37:59;90389.91;;;26.12;24.04
10366;BME280;5229;41.820;23.490;2023-05-02T10:40:27;90377.56;;;25.64;24.76
10366;BME280;5229;41.820;23.490;2023-05-02T10:42:56;90384.13;;;25.31;24.97
10366;BME280;5229;41.820;23.490;2023-05-02T10:45:30;90375.41;;;24.85;25.86
10366;BME280;5229;41.820;23.490;2023-05-02T10:48:15;90366.28;;;24.30;26.87
10366;BME280;5229;41.820;23.490;2023-05-02T10:50:44;90368.88;;;24.02;27.33
10366;BME280;5229;41.820;23.490;2023-05-02T10:53:31;90376.31;;;23.75;27.83
10366;BME280;5229;41.820;23.490;2023-05-02T10:56:11;90373.94;;;23.46;27.83
10366;BME280;5229;41.820;23.490;2023-05-02T10:58:38;90362.75;;;23.09;28.53
10366;BME280;5229;41.820;23.490;2023-05-02T11:01:32;90358.06;;;22.84;28.65
10366;BME280;5229;41.820;23.490;2023-05-02T11:04:05;90348.63;;;22.83;28.67
10366;BME280;5229;41.820;23.490;2023-05-02T11:06:34;90349.31;;;22.77;28.77
10366;BME280;5229;41.820;23.490;2023-05-02T11:09:29;90365.47;;;22.65;29.23
10366;BME280;5229;41.820;23.490;2023-05-02T11:11:56;90368.09;;;22.61;29.35
10366;BME280;5229;41.820;23.490;2023-05-02T11:14:43;90371.72;;;22.46;29.59
10366;BME280;5229;41.820;23.490;2023-05-02T11:17:11;90350.47;;;22.32;30.29
10366;BME280;5229;41.820;23.490;2023-05-02T11:22:56;90355.13;;;22.06;30.60
10366;BME280;5229;41.820;23.490;2023-05-02T11:25:44;90338.78;;;21.93;30.56
10366;BME280;5229;41.820;23.490;2023-05-02T11:28:39;90343.38;;;22.00;30.67
10366;BME280;5229;41.820;23.490;2023-05-02T11:31:07;90370.56;;;22.00;30.61
10366;BME280;5229;41.820;23.490;2023-05-02T11:33:34;90329.66;;;21.87;30.50
10366;BME280;5229;41.820;23.490;2023-05-02T11:36:01;90361.34;;;21.87;30.72
10366;BME280;5229;41.820;23.490;2023-05-02T11:38:36;90329.66;;;21.87;30.39
10366;BME280;5229;41.820;23.490;2023-05-02T11:41:03;90326.63;;;21.85;30.44
10366;BME280;5229;41.820;23.490;2023-05-02T11:43:30;90329.88;;;21.72;30.93
10366;BME280;5229;41.820;23.490;2023-05-02T11:45:58;90324.25;;;21.73;30.74
10366;BME280;5229;41.820;23.490;2023-05-02T11:48:26;90327.59;;;21.70;30.74
10366;BME280;5229;41.820;23.490;2023-05-02T11:50:55;90334.31;;;21.64;30.66
10366;BME280;5229;41.820;23.490;2023-05-02T11:53:23;90328.59;;;21.59;30.51
10366;BME280;5229;41.820;23.490;2023-05-02T11:55:53;90314.97;;;21.53;30.71
10366;BME280;5229;41.820;23.490;2023-05-02T11:58:24;90321.41;;;21.56;30.53
10366;BME280;5229;41.820;23.490;2023-05-02T12:00:52;90311.19;;;21.54;30.24
10366;BME280;5229;41.820;23.490;2023-05-02T12:03:23;90330.75;;;21.50;29.91
10366;BME280;5229;41.820;23.490;2023-05-02T12:05:50;90314.19;;;21.49;29.80
10366;BME280;5229;41.820;23.490;2023-05-02T12:08:19;90311.84;;;21.44;29.56
10366;BME280;5229;41.820;23.490;2023-05-02T12:10:48;90309.13;;;21.37;29.35
10366;BME280;5229;41.820;23.490;2023-05-02T12:13:19;90288.28;;;21.29;29.84
10366;BME280;5229;41.820;23.490;2023-05-02T12:15:47;90293.53;;;21.25;29.98
10366;BME280;5229;41.820;23.490;2023-05-02T12:18:16;90293.56;;;21.29;30.00
10366;BME280;5229;41.820;23.490;2023-05-02T12:20:44;90296.56;;;21.27;30.02
10366;BME280;5229;41.820;23.490;2023-05-02T12:23:11;90298.06;;;21.25;30.08
10366;BME280;5229;41.820;23.490;2023-05-02T12:25:39;90289.78;;;21.26;30.30
10366;BME280;5229;41.820;23.490;2023-05-02T12:28:06;90300.25;;;21.19;30.39
10366;BME280;5229;41.820;23.490;2023-05-02T12:30:35;90300.13;;;21.09;30.24
10366;BME280;5229;41.820;23.490;2023-05-02T12:33:03;90297.69;;;20.93;30.44
10366;BME280;5229;41.820;23.490;2023-05-02T12:35:31;90303.47;;;20.80;30.49
10366;BME280;5229;41.820;23.490;2023-05-02T12:38:13;90278.72;;;20.58;30.95
10366;BME280;5229;41.820;23.490;2023-05-02T12:40:48;90276.03;;;20.55;31.25
10366;BME280;5229;41.820;23.490;2023-05-02T12:43:15;90276.81;;;20.55;30.72
10366;BME280;5229;41.820;23.490;2023-05-02T12:45:44;90271.50;;;20.52;30.85
10366;BME280;5229;41.820;23.490;2023-05-02T12:48:26;90298.09;;;20.43;31.18
10366;BME280;5229;41.820;23.490;2023-05-02T12:50:54;90284.09;;;20.39;31.04
10366;BME280;5229;41.820;23.490;2023-05-02T12:53:39;90259.91;;;20.30;31.27
10366;BME280;5229;41.820;23.490;2023-05-02T12:56:06;90265.97;;;20.34;31.00
10366;BME280;5229;41.820;23.490;2023-05-02T12:58:40;90286.53;;;20.25;30.95
10366;BME280;5229;41.820;23.490;2023-05-02T13:01:09;90263.69;;;20.10;30.85
10366;BME280;5229;41.820;23.490;2023-05-02T13:03:36;90255.59;;;19.96;30.71
10366;BME280;5229;41.820;23.490;2023-05-02T13:06:04;90261.56;;;19.93;30.92
10366;BME280;5229;41.820;23.490;2023-05-02T13:08:31;90266.47;;;19.94;30.71
10366;BME280;5229;41.820;23.490;2023-05-02T13:10:58;90268.00;;;19.95;30.70
10366;BME280;5229;41.820;23.490;2023-05-02T13:13:25;90252.56;;;19.94;30.29
10366;BME280;5229;41.820;23.490;2023-05-02T13:15:52;90258.22;;;19.96;30.44